createdAt,value
2019-04-26T00:00:22.934Z,9.50
2019-04-26T00:04:24.918Z,9.40
2019-04-26T00:08:26.811Z,9.40
2019-04-26T00:13:24.790Z,9.30
2019-04-26T00:16:56.751Z,9.30
2019-04-26T00:20:58.991Z,9.40
2019-04-26T00:25:01.777Z,10.00
2019-04-26T00:29:03.783Z,10.40
2019-04-26T00:33:05.813Z,10.80
2019-04-26T00:37:07.839Z,10.60
2019-04-26T00:41:12.684Z,10.30
2019-04-26T00:45:15.064Z,10.10
2019-04-26T00:49:19.217Z,9.90
2019-04-26T00:53:24.378Z,9.80
2019-04-26T00:57:27.836Z,9.70
2019-04-26T01:01:31.691Z,9.80
2019-04-26T01:05:35.244Z,9.70
2019-04-26T01:09:37.155Z,9.60
2019-04-26T01:13:39.057Z,9.50
2019-04-26T01:17:40.973Z,9.60
2019-04-26T01:21:47.445Z,9.60
2019-04-26T01:26:05.702Z,9.30
2019-04-26T01:30:12.675Z,9.20
2019-04-26T01:34:14.705Z,9.10
2019-04-26T01:38:17.386Z,9.10
2019-04-26T01:42:30.017Z,9.00
2019-04-26T01:46:51.427Z,9.00
2019-04-26T01:51:11.737Z,9.00
2019-04-26T01:55:17.289Z,9.00
2019-04-26T01:59:22.187Z,8.80
2019-04-26T02:03:26.407Z,8.90
2019-04-26T02:07:41.428Z,8.50
2019-04-26T02:11:43.878Z,8.30
2019-04-26T02:15:45.856Z,8.30
2019-04-26T02:19:48.036Z,8.40
2019-04-26T02:24:08.291Z,8.30
2019-04-26T02:28:10.308Z,8.20
2019-04-26T02:32:12.581Z,8.10
2019-04-26T02:36:15.126Z,8.20
2019-04-26T02:40:19.712Z,8.10
2019-04-26T02:44:29.058Z,8.00
2019-04-26T02:48:52.053Z,8.00
2019-04-26T02:53:04.502Z,8.00
2019-04-26T02:57:06.676Z,8.00
2019-04-26T03:01:09.099Z,7.90
2019-04-26T03:05:11.866Z,8.00
2019-04-26T03:09:16.510Z,7.90
2019-04-26T03:13:23.279Z,7.80
2019-04-26T03:17:38.159Z,7.70
2019-04-26T03:21:57.343Z,7.70
2019-04-26T03:26:26.334Z,7.70
2019-04-26T03:31:00.340Z,7.80
2019-04-26T03:35:23.055Z,7.60
2019-04-26T03:39:47.844Z,7.50
2019-04-26T03:44:05.913Z,7.80
2019-04-26T03:48:46.026Z,7.90
2019-04-26T03:53:12.224Z,8.10
2019-04-26T03:57:50.074Z,8.30
2019-04-26T04:01:58.177Z,8.20
2019-04-26T04:06:04.633Z,8.40
2019-04-26T04:10:23.054Z,8.70
2019-04-26T04:15:00.116Z,8.80
2019-04-26T04:19:28.833Z,9.00
2019-04-26T04:23:48.725Z,9.10
2019-04-26T04:28:07.183Z,9.20
2019-04-26T04:32:36.429Z,9.20
2019-04-26T04:36:51.293Z,9.20
2019-04-26T04:41:10.480Z,9.30
2019-04-26T04:46:10.925Z,9.30
2019-04-26T04:50:17.518Z,9.30
2019-04-26T04:54:26.797Z,9.30
2019-04-26T04:58:52.443Z,9.20
2019-04-26T05:03:28.124Z,9.30
2019-04-26T05:08:13.950Z,9.30
2019-04-26T05:12:31.073Z,9.40
2019-04-26T05:17:28.040Z,9.40
2019-04-26T05:21:40.402Z,9.50
2019-04-26T05:26:16.497Z,9.70
2019-04-26T05:30:42.330Z,9.80
2019-04-26T05:35:02.055Z,10.00
2019-04-26T05:39:20.234Z,10.20
2019-04-26T05:43:46.245Z,10.30
2019-04-26T05:48:30.295Z,10.40
2019-04-26T05:53:10.246Z,10.50
2019-04-26T05:57:24.425Z,10.80
2019-04-26T06:02:01.057Z,10.90
2019-04-26T06:06:29.306Z,11.00
2019-04-26T06:10:43.204Z,11.00
2019-04-26T06:15:27.778Z,11.10
2019-04-26T06:20:23.630Z,11.20
2019-04-26T06:24:38.747Z,11.30
2019-04-26T06:29:01.055Z,11.50
2019-04-26T06:33:19.122Z,11.70
2019-04-26T06:37:36.148Z,11.80
2019-04-26T06:42:05.160Z,11.80
2019-04-26T06:46:43.046Z,11.80
2019-04-26T06:51:24.668Z,11.80
2019-04-26T06:55:25.057Z,12.00
2019-04-26T07:00:17.359Z,12.00
2019-04-26T07:04:43.524Z,12.10
2019-04-26T07:08:57.490Z,12.40
2019-04-26T07:13:32.927Z,12.50
2019-04-26T07:17:51.475Z,12.60
2019-04-26T07:22:19.828Z,12.90
2019-04-26T07:26:50.348Z,13.20
2019-04-26T07:31:06.239Z,13.30
2019-04-26T07:35:19.651Z,13.50
2019-04-26T07:39:39.736Z,13.50
2019-04-26T07:44:12.809Z,13.60
2019-04-26T07:48:41.549Z,13.30
2019-04-26T07:53:09.324Z,13.20
2019-04-26T07:58:03.572Z,13.40
2019-04-26T08:02:32.287Z,13.60
2019-04-26T08:06:56.071Z,13.40
2019-04-26T08:11:12.832Z,13.30
2019-04-26T08:15:21.327Z,13.60
2019-04-26T08:19:26.928Z,13.90
2019-04-26T08:23:41.929Z,13.70
2019-04-26T08:27:42.291Z,13.80
2019-04-26T08:31:48.817Z,13.70
2019-04-26T08:35:55.374Z,13.60
2019-04-26T08:39:59.472Z,13.40
2019-04-26T08:44:09.769Z,13.50
2019-04-26T08:48:23.350Z,13.60
2019-04-26T08:52:26.622Z,13.60
2019-04-26T08:56:47.704Z,13.80
2019-04-26T09:00:58.543Z,13.90
2019-04-26T09:05:25.261Z,14.10
2019-04-26T09:09:32.427Z,14.20
2019-04-26T09:13:38.993Z,14.00
2019-04-26T09:17:40.911Z,14.20
2019-04-26T09:21:47.399Z,14.50
2019-04-26T09:25:59.087Z,14.70
2019-04-26T09:29:54.982Z,15.00
2019-04-26T09:33:58.527Z,15.10
2019-04-26T09:38:00.446Z,14.80
2019-04-26T09:42:12.771Z,14.90
2019-04-26T09:46:17.021Z,14.80
2019-04-26T09:50:26.778Z,14.50
2019-04-26T09:54:28.861Z,14.50
2019-04-26T09:58:32.192Z,14.40
2019-04-26T10:02:35.405Z,14.20
2019-04-26T10:06:37.433Z,14.50
2019-04-26T10:10:39.425Z,14.50
2019-04-26T10:14:43.047Z,13.90
2019-04-26T10:18:50.517Z,13.90
2019-04-26T10:22:52.439Z,13.90
2019-04-26T10:26:55.515Z,13.80
2019-04-26T10:30:57.576Z,13.70
2019-04-26T10:34:59.651Z,13.70
2019-04-26T10:39:01.565Z,13.50
2019-04-26T10:43:06.392Z,13.40
2019-04-26T10:47:08.548Z,13.30
2019-04-26T10:51:11.232Z,13.00
2019-04-26T10:55:21.361Z,13.00
2019-04-26T10:59:25.290Z,12.90
2019-04-26T11:03:27.520Z,12.40
2019-04-26T11:07:30.385Z,12.30
2019-04-26T11:11:32.746Z,12.10
2019-04-26T11:15:34.844Z,12.20
2019-04-26T11:19:36.821Z,12.10
2019-04-26T11:23:41.074Z,12.10
2019-04-26T11:27:44.326Z,12.00
2019-04-26T11:31:46.099Z,11.90
2019-04-26T11:35:48.154Z,11.80
2019-04-26T11:39:50.088Z,11.70
2019-04-26T11:43:52.956Z,11.70
2019-04-26T11:47:56.601Z,11.80
2019-04-26T11:52:02.656Z,11.60
2019-04-26T11:56:04.598Z,11.60
2019-04-26T12:00:11.096Z,11.40
2019-04-26T12:04:20.149Z,11.50
2019-04-26T12:08:26.587Z,11.60
2019-04-26T12:12:28.596Z,11.70
2019-04-26T12:16:30.574Z,11.50
2019-04-26T12:20:32.779Z,11.40
2019-04-26T12:24:34.695Z,11.50
2019-04-26T12:28:40.040Z,11.40
2019-04-26T12:32:40.209Z,11.40
2019-04-26T12:36:42.142Z,11.40
2019-04-26T12:40:46.179Z,11.40
2019-04-26T12:45:05.499Z,11.20
2019-04-26T12:49:07.864Z,11.10
2019-04-26T12:53:09.797Z,11.00
2019-04-26T12:57:11.688Z,11.10
2019-04-26T13:01:14.367Z,11.10
2019-04-26T13:05:18.886Z,10.90
2019-04-26T13:09:26.190Z,10.70
2019-04-26T13:13:26.756Z,10.70
2019-04-26T13:17:31.347Z,10.70
2019-04-26T13:21:37.146Z,10.80
2019-04-26T13:25:40.428Z,11.00
2019-04-26T13:29:41.452Z,11.00
2019-04-26T13:33:43.390Z,11.10
2019-04-26T13:37:48.443Z,11.00
2019-04-26T13:42:02.119Z,10.80
2019-04-26T13:45:56.576Z,10.80
2019-04-26T13:50:12.237Z,10.80
2019-04-26T13:54:16.667Z,10.90
2019-04-26T13:58:20.952Z,10.80
2019-04-26T14:02:21.536Z,10.70
2019-04-26T14:06:23.554Z,10.80
2019-04-26T14:10:25.614Z,10.70
2019-04-26T14:14:30.289Z,10.40
2019-04-26T14:18:34.515Z,10.30
2019-04-26T14:22:37.068Z,10.30
2019-04-26T14:26:41.761Z,10.20
2019-04-26T14:30:43.786Z,10.10
2019-04-26T14:34:45.773Z,9.90
2019-04-26T14:39:05.731Z,9.80
2019-04-26T14:43:06.797Z,9.80
2019-04-26T14:47:13.844Z,9.70
2019-04-26T14:51:12.506Z,9.50
2019-04-26T14:55:16.534Z,9.50
2019-04-26T14:59:18.062Z,9.30
2019-04-26T15:03:24.478Z,9.20
2019-04-26T15:07:28.298Z,9.10
2019-04-26T15:11:32.292Z,9.10
2019-04-26T15:15:34.670Z,9.10
2019-04-26T15:19:40.314Z,9.00
2019-04-26T15:23:40.261Z,8.90
2019-04-26T15:27:44.121Z,8.90
2019-04-26T15:31:45.750Z,8.90
2019-04-26T15:35:48.706Z,9.00
2019-04-26T15:40:02.367Z,9.00
2019-04-26T15:44:07.732Z,8.80
2019-04-26T15:48:40.610Z,8.80
2019-04-26T15:52:43.891Z,8.60
2019-04-26T15:56:49.372Z,8.60
2019-04-26T16:00:49.555Z,8.70
2019-04-26T16:04:54.408Z,8.70
2019-04-26T16:08:55.080Z,8.80
2019-04-26T16:13:01.276Z,8.70
2019-04-26T16:17:03.166Z,8.60
2019-04-26T16:21:04.345Z,8.50
2019-04-26T16:25:07.958Z,8.40
2019-04-26T16:29:09.630Z,8.40
2019-04-26T16:33:13.489Z,8.40
2019-04-26T16:37:21.834Z,8.40
2019-04-26T16:41:21.762Z,8.50
2019-04-26T16:45:23.858Z,8.50
2019-04-26T16:49:25.771Z,8.50
2019-04-26T16:53:43.855Z,8.50
2019-04-26T16:57:31.418Z,8.40
2019-04-26T17:01:33.518Z,8.40
2019-04-26T17:05:46.848Z,8.40
2019-04-26T17:09:57.034Z,8.40
2019-04-26T17:13:51.223Z,8.50
2019-04-26T17:17:50.390Z,8.50
2019-04-26T17:21:56.495Z,8.40
2019-04-26T17:26:04.021Z,8.30
2019-04-26T17:46:43.479Z,8.40
2019-04-26T17:50:45.661Z,8.40
2019-04-26T18:03:01.879Z,8.10
2019-04-26T18:07:33.363Z,8.10
2019-04-26T18:11:07.762Z,8.20
2019-04-26T18:15:12.514Z,8.20
2019-04-26T18:19:15.501Z,8.20
2019-04-26T18:23:18.842Z,8.20
2019-04-26T18:31:29.112Z,8.20
2019-04-26T18:35:33.731Z,8.10
2019-04-26T18:39:36.633Z,8.10
2019-04-26T18:43:38.533Z,8.00
2019-04-26T18:47:45.047Z,8.00
2019-04-26T18:51:48.489Z,8.00
2019-04-26T18:55:50.921Z,8.00
2019-04-26T18:59:52.963Z,8.00
2019-04-26T19:03:54.983Z,8.20
2019-04-26T19:07:56.891Z,8.10
2019-04-26T19:11:58.875Z,8.00
2019-04-26T19:16:18.810Z,8.10
2019-04-26T19:20:28.298Z,8.00
2019-04-26T19:24:30.193Z,8.00
2019-04-26T19:28:32.106Z,8.00
2019-04-26T19:32:35.375Z,8.00
2019-04-26T19:36:37.688Z,8.00
2019-04-26T19:40:46.474Z,8.10
2019-04-26T19:44:43.188Z,8.00
2019-04-26T19:49:00.063Z,8.00
2019-04-26T19:53:14.244Z,8.00
2019-04-26T19:57:21.728Z,8.00
2019-04-26T20:01:25.069Z,8.00
2019-04-26T20:05:26.959Z,8.10
2019-04-26T20:09:29.143Z,8.00
2019-04-26T20:13:31.685Z,7.90
2019-04-26T20:17:33.778Z,8.00
2019-04-26T20:21:35.979Z,8.00
2019-04-26T20:25:37.882Z,7.90
2019-04-26T20:29:40.800Z,7.80
2019-04-26T20:33:43.383Z,7.90
2019-04-26T20:37:45.791Z,8.10
2019-04-26T20:42:00.313Z,8.10
2019-04-26T20:46:10.601Z,8.10
2019-04-26T20:50:01.126Z,8.10
2019-04-26T20:53:58.671Z,8.20
2019-04-26T20:58:07.057Z,8.20
2019-04-26T21:02:08.136Z,8.30
2019-04-26T21:06:07.877Z,8.20
2019-04-26T21:10:15.214Z,8.20
2019-04-26T21:14:13.918Z,8.20
2019-04-26T21:18:15.812Z,8.20
2019-04-26T21:22:25.470Z,8.30
2019-04-26T21:26:24.345Z,8.40
2019-04-26T21:30:38.657Z,8.40
2019-04-26T21:34:46.443Z,8.30
2019-04-26T21:38:48.218Z,8.30
2019-04-26T21:42:53.818Z,8.40
2019-04-26T21:46:58.660Z,8.40
2019-04-26T21:50:57.414Z,8.50
2019-04-26T21:54:59.311Z,8.40
2019-04-26T21:59:03.458Z,8.40
2019-04-26T22:03:07.800Z,8.30
2019-04-26T22:07:09.257Z,8.20
2019-04-26T22:11:13.982Z,8.20
2019-04-26T22:15:35.853Z,8.20
2019-04-26T22:19:36.213Z,8.30
2019-04-26T22:23:39.749Z,8.20
2019-04-26T22:27:43.630Z,8.20
2019-04-26T22:31:45.305Z,8.10
2019-04-26T22:35:50.578Z,8.20
2019-04-26T22:39:50.816Z,8.20
2019-04-26T22:43:57.029Z,8.20
2019-04-26T22:47:58.728Z,8.10
2019-04-26T22:52:00.611Z,8.10
2019-04-26T22:56:03.316Z,8.00
2019-04-26T23:00:07.551Z,8.00
2019-04-26T23:04:11.488Z,8.00
2019-04-26T23:08:13.732Z,8.10
2019-04-26T23:12:27.963Z,8.00
2019-04-26T23:17:08.478Z,8.10
2019-04-26T23:21:33.877Z,8.10
2019-04-26T23:25:37.032Z,8.10
2019-04-26T23:29:39.249Z,8.20
2019-04-26T23:33:42.834Z,8.30
2019-04-26T23:37:46.003Z,8.20
2019-04-26T23:41:49.091Z,8.30
2019-04-26T23:45:51.000Z,8.30
2019-04-26T23:49:53.850Z,8.30
2019-04-26T23:53:57.896Z,8.30
2019-04-26T23:58:00.497Z,8.30
